Time;durP1;ratioP1;P1;durP2;ratioP2;P2;SDS_P1;SDS_P2;PMS_P1;PMS_P2;Temp;Humidity;BMP_temperature;BMP_pressure;BME280_temperature;BME280_humidity;BME280_pressure;Samples;Min_cycle;Max_cycle;Signal;HPM_P1;HPM_P2
2022/11/17 00:29:05;;;;;;;10.48;6.47;;;;;;;3.66;80.34;99076.84;30490946;28;97181;-67
2022/11/17 00:44:06;;;;;;;10.80;6.53;;;;;;;3.67;80.72;99081.13;30489292;28;96595;-67
2022/11/17 00:59:07;;;;;;;10.27;6.20;;;;;;;3.66;80.97;99082.94;30498937;28;96969;-67
2022/11/17 01:14:12;;;;;;;9.98;6.53;;;;;;;3.66;80.68;99082.94;30507086;28;97365;-67
2022/11/17 01:29:16;;;;;;;9.20;5.68;;;;;;;3.60;80.59;99073.00;30506538;28;96743;-67
2022/11/17 01:44:35;;;;;;;7.72;5.72;;;;;;;3.60;80.77;99067.75;30504096;28;97295;-67
2022/11/17 01:59:42;;;;;;;7.88;5.07;;;;;;;3.59;80.82;99060.81;30502806;28;97376;-68
2022/11/17 02:14:43;;;;;;;9.07;6.10;;;;;;;3.61;80.92;99058.03;30500886;28;96829;-68
2022/11/17 02:30:00;;;;;;;9.73;5.85;;;;;;;3.61;80.70;99047.50;30500541;28;97526;-67
2022/11/17 02:45:02;;;;;;;7.70;5.22;;;;;;;3.62;81.08;99039.44;30498959;28;97407;-67
2022/11/17 03:00:07;;;;;;;7.88;5.47;;;;;;;3.67;80.87;99031.09;30497136;28;97729;-67
2022/11/17 03:15:40;;;;;;;10.07;6.10;;;;;;;3.71;81.14;99038.53;30495147;28;97680;-66
2022/11/17 03:30:44;;;;;;;8.95;6.45;;;;;;;3.68;80.91;99041.47;30487503;28;96797;-68
2022/11/17 03:45:50;;;;;;;12.50;7.27;;;;;;;3.68;80.70;99048.56;30491948;28;96624;-66
2022/11/17 04:00:52;;;;;;;10.95;7.18;;;;;;;3.67;81.12;99058.25;30491461;28;96757;-66
2022/11/17 04:15:55;;;;;;;11.10;7.03;;;;;;;3.64;80.54;99069.09;30489054;28;96567;-65
2022/11/17 04:30:56;;;;;;;11.82;7.55;;;;;;;3.62;80.76;99055.25;30496427;28;97558;-65
2022/11/17 04:46:00;;;;;;;10.93;7.25;;;;;;;3.59;80.88;99050.28;30508227;28;97102;-65
2022/11/17 05:01:13;;;;;;;10.53;7.43;;;;;;;3.54;80.61;99047.28;30505880;28;96714;-65
2022/11/17 05:31:32;;;;;;;12.18;7.68;;;;;;;3.47;80.42;99062.88;30504141;28;97321;-68
2022/11/17 05:46:33;;;;;;;9.05;5.78;;;;;;;3.44;80.30;99073.69;30494195;28;98870;-62
2022/11/17 06:01:37;;;;;;;11.13;7.20;;;;;;;3.48;80.47;99064.53;30434410;28;98595;-65
2022/11/17 06:16:40;;;;;;;;;;;;;;;3.45;80.66;99058.75;30465742;28;96992;-65
2022/11/17 06:31:43;;;;;;;12.60;7.28;;;;;;;3.46;80.74;99065.66;30468711;28;97700;-67
2022/11/17 06:46:43;;;;;;;9.95;6.75;;;;;;;3.45;80.50;99072.72;30463955;28;98376;-68
2022/11/17 07:01:44;;;;;;;10.23;6.38;;;;;;;3.49;80.40;99081.97;30459920;28;98013;-67
2022/11/17 07:16:44;;;;;;;14.48;7.47;;;;;;;3.56;80.02;99090.91;30460736;28;97662;-67
2022/11/17 07:31:44;;;;;;;14.50;6.60;;;;;;;3.63;80.11;99077.97;30463459;28;98400;-68
2022/11/17 07:46:45;;;;;;;8.68;5.55;;;;;;;3.77;80.04;99089.75;30461625;28;97146;-68
2022/11/17 08:01:45;;;;;;;6.63;4.75;;;;;;;3.79;79.47;99085.19;30456771;28;97198;-74
2022/11/17 08:16:45;;;;;;;7.85;4.63;;;;;;;3.86;79.29;99073.03;30456507;28;97937;-66
2022/11/17 08:31:46;;;;;;;6.82;4.13;;;;;;;3.90;78.89;99082.28;30453954;28;98380;-70
2022/11/17 08:46:47;;;;;;;9.23;5.47;;;;;;;3.81;78.82;99085.84;30455076;28;98266;-68
2022/11/17 09:01:48;;;;;;;7.97;4.88;;;;;;;3.80;78.43;99105.28;30454262;28;96980;-68
2022/11/17 09:16:48;;;;;;;7.18;4.43;;;;;;;4.02;78.22;99108.41;30458260;28;96772;-68
2022/11/17 09:31:49;;;;;;;5.18;3.38;;;;;;;4.24;77.48;99092.03;30472131;28;97992;-69
2022/11/17 09:47:27;;;;;;;5.68;3.72;;;;;;;4.26;76.94;99089.25;30470049;28;98387;-76
2022/11/17 10:02:28;;;;;;;5.18;3.63;;;;;;;4.31;76.81;99086.97;30394657;28;97234;-67
2022/11/17 10:17:28;;;;;;;5.25;3.20;;;;;;;4.12;76.25;99097.75;30464886;28;97847;-73
2022/11/17 10:32:35;;;;;;;4.07;3.00;;;;;;;3.93;76.15;99085.59;30473585;28;97758;-68
2022/11/17 10:47:39;;;;;;;4.35;2.80;;;;;;;4.01;76.05;99094.38;30462245;28;96806;-69
2022/11/17 11:02:39;;;;;;;6.27;3.47;;;;;;;4.09;75.56;99095.41;30460743;28;98451;-67
2022/11/17 11:17:40;;;;;;;3.58;2.38;;;;;;;3.90;74.70;99089.38;30476089;28;97407;-69
2022/11/17 11:32:43;;;;;;;4.70;2.70;;;;;;;3.65;74.87;99081.28;30490797;28;96694;-68
2022/11/17 11:47:57;;;;;;;5.22;2.88;;;;;;;3.70;74.89;99092.19;30488248;28;96634;-69
2022/11/17 12:03:18;;;;;;;6.07;3.53;;;;;;;3.64;74.60;99090.16;30487481;28;96723;-77
2022/11/17 12:18:19;;;;;;;6.47;3.88;;;;;;;3.61;74.72;99094.91;30516899;28;97984;-67
2022/11/17 12:33:20;;;;;;;9.82;3.47;;;;;;;3.51;74.00;99095.84;30485913;28;97820;-67
2022/11/17 12:48:31;;;;;;;6.05;3.92;;;;;;;3.50;73.97;99102.06;30478430;28;97655;-66
2022/11/17 13:03:53;;;;;;;5.43;3.50;;;;;;;3.45;73.93;99092.97;30497957;28;97154;-67
2022/11/17 13:18:53;;;;;;;7.53;3.63;;;;;;;3.32;73.22;99083.66;30497071;28;97640;-64
2022/11/17 13:34:03;;;;;;;8.70;3.72;;;;;;;3.29;73.73;99064.69;30467048;28;97086;-65
2022/11/17 13:49:33;;;;;;;5.85;4.00;;;;;;;3.05;73.71;99059.03;30471675;28;96865;-63
2022/11/17 14:04:33;;;;;;;6.85;3.85;;;;;;;2.90;73.38;99042.13;30496335;28;97643;-64
2022/11/17 14:19:34;;;;;;;8.68;4.68;;;;;;;2.83;73.73;99044.53;30493214;28;96808;-63
2022/11/17 14:34:34;;;;;;;5.95;3.58;;;;;;;2.78;73.25;99035.44;30495781;28;97346;-63
2022/11/17 14:49:34;;;;;;;5.57;3.67;;;;;;;2.70;73.98;99033.53;30493881;28;96763;-63
2022/11/17 15:04:35;;;;;;;6.45;4.60;;;;;;;2.68;73.30;99056.53;30483286;28;97354;-62
2022/11/17 15:19:36;;;;;;;7.65;4.40;;;;;;;2.58;73.85;99053.13;30482912;28;97133;-62
2022/11/17 15:34:36;;;;;;;8.05;4.78;;;;;;;2.59;73.18;99052.16;30489294;28;96715;-65
2022/11/17 15:49:36;;;;;;;7.57;4.57;;;;;;;2.46;73.03;99048.06;30489376;28;96717;-62
2022/11/17 16:04:37;;;;;;;8.88;5.50;;;;;;;2.29;73.48;99036.50;30488358;28;96696;-63
2022/11/17 16:19:37;;;;;;;9.13;5.63;;;;;;;2.28;73.30;99029.59;30486938;28;97459;-63
2022/11/17 16:34:40;;;;;;;7.78;3.70;;;;;;;2.23;72.98;99029.22;30502491;28;97142;-60
2022/11/17 16:49:40;;;;;;;9.50;5.32;;;;;;;2.18;72.96;99037.53;30506091;28;99019;-60
2022/11/17 17:04:41;;;;;;;8.63;5.78;;;;;;;2.14;73.23;99033.53;30502720;28;97388;-60
2022/11/17 17:19:41;;;;;;;9.70;6.70;;;;;;;2.11;73.03;99030.38;30493781;28;97429;-61
2022/11/17 17:34:41;;;;;;;3.78;2.50;;;;;;;2.05;72.94;99046.72;30477883;28;96861;-61
2022/11/17 17:49:42;;;;;;;7.97;4.40;;;;;;;2.01;72.96;99068.03;30485838;28;97237;-62
2022/11/17 18:04:42;;;;;;;8.15;3.45;;;;;;;1.98;72.94;99060.44;30494627;28;97463;-62
2022/11/17 18:19:43;;;;;;;6.70;3.67;;;;;;;1.97;72.78;99064.03;30495303;28;96982;-60
2022/11/17 18:34:43;;;;;;;5.93;3.55;;;;;;;1.93;72.65;99036.38;30495757;28;96696;-63
2022/11/17 18:49:44;;;;;;;15.30;5.85;;;;;;;1.95;72.63;99033.59;30495733;28;97037;-65
2022/11/17 19:04:44;;;;;;;11.18;5.95;;;;;;;1.97;72.74;99022.00;30494695;28;97028;-61
2022/11/17 19:19:44;;;;;;;9.95;6.05;;;;;;;1.95;72.56;99023.91;30384533;28;97638;-67
2022/11/17 19:34:45;;;;;;;9.88;5.70;;;;;;;1.95;72.49;99026.53;30474016;28;97368;-66
2022/11/17 19:49:45;;;;;;;10.13;5.53;;;;;;;1.95;72.17;99002.91;30489891;28;96653;-65
2022/11/17 20:04:46;;;;;;;8.20;4.75;;;;;;;1.95;72.77;99018.66;30476691;28;96936;-63
2022/11/17 20:19:46;;;;;;;8.02;4.63;;;;;;;1.95;72.75;99028.34;30486712;28;96982;-62
2022/11/17 20:34:47;;;;;;;8.88;5.90;;;;;;;1.89;72.22;99024.50;30489808;28;96910;-60
2022/11/17 20:49:47;;;;;;;8.05;5.25;;;;;;;1.84;72.03;99000.47;30487759;28;97197;-65
2022/11/17 21:04:47;;;;;;;10.80;6.13;;;;;;;1.80;72.60;98978.09;30487863;28;96583;-64
2022/11/17 21:19:48;;;;;;;9.52;5.80;;;;;;;1.83;72.03;99004.06;30499305;28;97379;-64
2022/11/17 21:34:48;;;;;;;10.15;6.50;;;;;;;1.75;72.42;98969.81;30504091;28;96690;-61
2022/11/17 21:49:48;;;;;;;13.20;7.50;;;;;;;1.72;72.76;98956.97;30502453;28;97196;-61
2022/11/17 22:04:49;;;;;;;13.13;7.75;;;;;;;1.67;72.29;98945.09;30500986;28;97369;-61
2022/11/17 22:19:49;;;;;;;16.30;7.82;;;;;;;1.63;72.54;98941.13;30498765;28;96771;-62
2022/11/17 22:34:50;;;;;;;11.18;7.60;;;;;;;1.58;72.60;98951.22;30499574;28;97338;-61
2022/11/17 22:49:50;;;;;;;13.43;6.22;;;;;;;1.52;72.35;98962.28;30499259;28;96655;-61
2022/11/17 23:04:50;;;;;;;10.07;6.32;;;;;;;1.46;72.62;98966.31;30497782;28;96772;-61
2022/11/17 23:19:51;;;;;;;11.75;7.53;;;;;;;1.45;72.26;98969.91;30496085;28;96755;-60
2022/11/17 23:34:51;;;;;;;8.55;6.70;;;;;;;1.48;72.73;98963.56;30493282;28;98263;-64
2022/11/17 23:49:52;;;;;;;10.45;7.53;;;;;;;1.51;72.50;98952.75;30494637;28;96898;-62
